Disclaimer

Please do not use the information listed here in-flight or in-navigation, as they are not provided to us by the airports but are provided by volunteers, so they might be outdated.

Search


Regions


Airport information page

Radio informations:
MAZATLAN TWR - 118.3 MHz
Automatic Terminal Information Service (ATIS) - 127.7 MHz
MAZATLAN APP - 121.2 MHz

Airport informations:
Latitude: 23° 09' 40.88" N
Longitude: 106° 15' 57.86" W
Elevation: 38 feet - 12 meters
Operating hours: 24 hour operations
Operating agency: Civil government, landing fees and diplomatic clearance may be required
Timezone: UTC-7(-6DT) - First Sunday in April to the last Saturday in October
Fuel: Jet A1, without icing nhibitor.

100/130 MIL Spec, low lead, aviation gasoline (BLUE)

Runway information:
08/26 - 8858 x 197 feet< - >2700 x 60 meters

Recent METARs:
MMMZ 131841Z 28005KT 15SM SKC 30/20 A2995 RMK ISOL CU 1QUAD
MMMZ 131841Z 28005KT 15SM SKC 30/20 A2995 RMK ISOL CU 1QUAD
MMMZ 131952Z 22006KT 15SM FEW016TCU 30/18 A2991 RMK 8/200

Airport on the map: